sensor_id;sensor_type;location;lat;lon;timestamp;pressure;altitude;pressure_sealevel;temperature;humidity
10014;BME280;45684;48.358;10.746;2023-01-26T00:02:12;96630.97;;;0.37;100.00
10014;BME280;45684;48.358;10.746;2023-01-26T00:04:40;96628.09;;;0.39;100.00
10014;BME280;45684;48.358;10.746;2023-01-26T00:07:08;96627.31;;;0.38;100.00
10014;BME280;45684;48.358;10.746;2023-01-26T00:09:35;96629.38;;;0.36;100.00
10014;BME280;45684;48.358;10.746;2023-01-26T00:12:04;96623.00;;;0.37;100.00
10014;BME280;45684;48.358;10.746;2023-01-26T00:14:33;96613.75;;;0.40;100.00
10014;BME280;45684;48.358;10.746;2023-01-26T00:17:17;96615.84;;;0.38;100.00
10014;BME280;45684;48.358;10.746;2023-01-26T00:19:52;96615.53;;;0.34;100.00
10014;BME280;45684;48.358;10.746;2023-01-26T00:22:21;96619.25;;;0.33;100.00
10014;BME280;45684;48.358;10.746;2023-01-26T00:24:48;96616.78;;;0.32;100.00
10014;BME280;45684;48.358;10.746;2023-01-26T00:27:16;96618.44;;;0.33;100.00
10014;BME280;45684;48.358;10.746;2023-01-26T00:29:45;96612.88;;;0.34;100.00
10014;BME280;45684;48.358;10.746;2023-01-26T00:32:14;96614.72;;;0.34;100.00
10014;BME280;45684;48.358;10.746;2023-01-26T00:34:42;96610.75;;;0.36;100.00
10014;BME280;45684;48.358;10.746;2023-01-26T00:37:10;96613.66;;;0.35;100.00
10014;BME280;45684;48.358;10.746;2023-01-26T00:39:37;96607.53;;;0.34;100.00
10014;BME280;45684;48.358;10.746;2023-01-26T00:42:05;96600.03;;;0.31;100.00
10014;BME280;45684;48.358;10.746;2023-01-26T00:44:36;96597.97;;;0.33;100.00
10014;BME280;45684;48.358;10.746;2023-01-26T00:47:07;96609.63;;;0.32;100.00
10014;BME280;45684;48.358;10.746;2023-01-26T00:49:36;96608.91;;;0.37;100.00
10014;BME280;45684;48.358;10.746;2023-01-26T00:52:04;96605.94;;;0.33;100.00
10014;BME280;45684;48.358;10.746;2023-01-26T00:54:32;96604.31;;;0.32;100.00
10014;BME280;45684;48.358;10.746;2023-01-26T00:57:00;96602.22;;;0.34;100.00
10014;BME280;45684;48.358;10.746;2023-01-26T00:59:28;96605.94;;;0.33;100.00
10014;BME280;45684;48.358;10.746;2023-01-26T01:01:58;96603.28;;;0.33;100.00
10014;BME280;45684;48.358;10.746;2023-01-26T01:04:28;96599.22;;;0.31;100.00
10014;BME280;45684;48.358;10.746;2023-01-26T01:06:59;96594.63;;;0.26;100.00
10014;BME280;45684;48.358;10.746;2023-01-26T01:09:27;96583.91;;;0.21;100.00
10014;BME280;45684;48.358;10.746;2023-01-26T01:11:55;96590.50;;;0.18;100.00
10014;BME280;45684;48.358;10.746;2023-01-26T01:14:23;96577.53;;;0.22;100.00
10014;BME280;45684;48.358;10.746;2023-01-26T01:16:51;96585.31;;;0.23;100.00
10014;BME280;45684;48.358;10.746;2023-01-26T01:19:19;96586.09;;;0.24;100.00
10014;BME280;45684;48.358;10.746;2023-01-26T01:21:48;96582.84;;;0.22;100.00
10014;BME280;45684;48.358;10.746;2023-01-26T01:24:15;96581.00;;;0.22;100.00
10014;BME280;45684;48.358;10.746;2023-01-26T01:26:43;96572.81;;;0.24;100.00
10014;BME280;45684;48.358;10.746;2023-01-26T01:29:12;96579.16;;;0.23;100.00
10014;BME280;45684;48.358;10.746;2023-01-26T01:31:40;96574.06;;;0.21;100.00
10014;BME280;45684;48.358;10.746;2023-01-26T01:34:09;96564.84;;;0.24;100.00
10014;BME280;45684;48.358;10.746;2023-01-26T01:36:37;96564.84;;;0.24;100.00
10014;BME280;45684;48.358;10.746;2023-01-26T01:39:06;96551.75;;;0.22;100.00
10014;BME280;45684;48.358;10.746;2023-01-26T01:41:34;96565.31;;;0.21;100.00
10014;BME280;45684;48.358;10.746;2023-01-26T01:44:13;96553.63;;;0.22;100.00
10014;BME280;45684;48.358;10.746;2023-01-26T01:46:44;96555.22;;;0.23;100.00
10014;BME280;45684;48.358;10.746;2023-01-26T01:49:17;96545.88;;;0.20;100.00
10014;BME280;45684;48.358;10.746;2023-01-26T01:51:49;96547.50;;;0.21;100.00
10014;BME280;45684;48.358;10.746;2023-01-26T01:54:27;96538.97;;;0.19;100.00
10014;BME280;45684;48.358;10.746;2023-01-26T01:56:58;96541.84;;;0.18;100.00
10014;BME280;45684;48.358;10.746;2023-01-26T01:59:28;96532.25;;;0.17;100.00
10014;BME280;45684;48.358;10.746;2023-01-26T02:01:57;96546.34;;;0.17;100.00
10014;BME280;45684;48.358;10.746;2023-01-26T02:04:25;96537.81;;;0.15;100.00
10014;BME280;45684;48.358;10.746;2023-01-26T02:06:56;96535.16;;;0.15;100.00
10014;BME280;45684;48.358;10.746;2023-01-26T02:09:29;96536.53;;;0.18;100.00
10014;BME280;45684;48.358;10.746;2023-01-26T02:12:18;96524.28;;;0.17;100.00
10014;BME280;45684;48.358;10.746;2023-01-26T02:14:48;96534.13;;;0.16;100.00
10014;BME280;45684;48.358;10.746;2023-01-26T02:17:16;96525.88;;;0.18;100.00
10014;BME280;45684;48.358;10.746;2023-01-26T02:19:49;96522.19;;;0.19;100.00
10014;BME280;45684;48.358;10.746;2023-01-26T02:22:25;96521.94;;;0.20;100.00
10014;BME280;45684;48.358;10.746;2023-01-26T02:25:00;96512.66;;;0.23;100.00
10014;BME280;45684;48.358;10.746;2023-01-26T02:27:33;96514.31;;;0.24;100.00
10014;BME280;45684;48.358;10.746;2023-01-26T02:30:01;96507.59;;;0.21;100.00
10014;BME280;45684;48.358;10.746;2023-01-26T02:32:31;96498.03;;;0.20;100.00
10014;BME280;45684;48.358;10.746;2023-01-26T02:34:58;96496.72;;;0.23;100.00
10014;BME280;45684;48.358;10.746;2023-01-26T02:37:26;96498.34;;;0.24;100.00
10014;BME280;45684;48.358;10.746;2023-01-26T02:39:58;96491.97;;;0.25;100.00
10014;BME280;45684;48.358;10.746;2023-01-26T02:42:29;96493.19;;;0.17;100.00
10014;BME280;45684;48.358;10.746;2023-01-26T02:45:11;96486.81;;;0.18;100.00
10014;BME280;45684;48.358;10.746;2023-01-26T02:47:40;96485.78;;;0.19;100.00
10014;BME280;45684;48.358;10.746;2023-01-26T02:50:10;96479.41;;;0.20;100.00
10014;BME280;45684;48.358;10.746;2023-01-26T02:52:38;96481.59;;;0.23;100.00
10014;BME280;45684;48.358;10.746;2023-01-26T02:55:12;96477.28;;;0.22;100.00
10014;BME280;45684;48.358;10.746;2023-01-26T02:57:52;96476.75;;;0.20;100.00
10014;BME280;45684;48.358;10.746;2023-01-26T03:00:24;96478.34;;;0.21;100.00
10014;BME280;45684;48.358;10.746;2023-01-26T03:02:53;96480.75;;;0.23;100.00
10014;BME280;45684;48.358;10.746;2023-01-26T03:05:23;96485.06;;;0.24;100.00
10014;BME280;45684;48.358;10.746;2023-01-26T03:07:52;96482.41;;;0.24;100.00
10014;BME280;45684;48.358;10.746;2023-01-26T03:10:23;96472.56;;;0.24;100.00
10014;BME280;45684;48.358;10.746;2023-01-26T03:12:52;96479.75;;;0.24;100.00
10014;BME280;45684;48.358;10.746;2023-01-26T03:15:21;96461.59;;;0.21;100.00
10014;BME280;45684;48.358;10.746;2023-01-26T03:18:12;96464.81;;;0.23;100.00
10014;BME280;45684;48.358;10.746;2023-01-26T03:20:59;96468.53;;;0.22;100.00
10014;BME280;45684;48.358;10.746;2023-01-26T03:23:45;96472.22;;;0.21;100.00
10014;BME280;45684;48.358;10.746;2023-01-26T03:26:31;96470.72;;;0.25;100.00
10014;BME280;45684;48.358;10.746;2023-01-26T03:29:18;96470.72;;;0.25;100.00
10014;BME280;45684;48.358;10.746;2023-01-26T03:31:47;96469.41;;;0.28;100.00
10014;BME280;45684;48.358;10.746;2023-01-26T03:34:17;96472.38;;;0.31;100.00
10014;BME280;45684;48.358;10.746;2023-01-26T03:36:46;96460.69;;;0.32;100.00
10014;BME280;45684;48.358;10.746;2023-01-26T03:39:16;96469.19;;;0.29;100.00
10014;BME280;45684;48.358;10.746;2023-01-26T03:42:03;96463.34;;;0.32;100.00
10014;BME280;45684;48.358;10.746;2023-01-26T03:44:49;96455.28;;;0.27;100.00
10014;BME280;45684;48.358;10.746;2023-01-26T03:47:37;96446.53;;;0.27;100.00
10014;BME280;45684;48.358;10.746;2023-01-26T03:50:23;96442.50;;;0.24;100.00
10014;BME280;45684;48.358;10.746;2023-01-26T03:53:13;96442.97;;;0.21;100.00
10014;BME280;45684;48.358;10.746;2023-01-26T03:55:58;96444.84;;;0.20;100.00
10014;BME280;45684;48.358;10.746;2023-01-26T03:58:50;96449.50;;;0.13;100.00
10014;BME280;45684;48.358;10.746;2023-01-26T04:01:22;96448.38;;;0.09;100.00
10014;BME280;45684;48.358;10.746;2023-01-26T04:03:56;96452.09;;;0.08;100.00
10014;BME280;45684;48.358;10.746;2023-01-26T04:06:44;96445.16;;;0.07;100.00
10014;BME280;45684;48.358;10.746;2023-01-26T04:09:31;96450.75;;;0.06;100.00
10014;BME280;45684;48.358;10.746;2023-01-26T04:12:00;96449.84;;;0.00;100.00
10014;BME280;45684;48.358;10.746;2023-01-26T04:14:28;96443.72;;;-0.01;100.00
10014;BME280;45684;48.358;10.746;2023-01-26T04:17:20;96446.94;;;0.02;100.00
10014;BME280;45684;48.358;10.746;2023-01-26T04:20:08;96444.63;;;0.05;100.00
10014;BME280;45684;48.358;10.746;2023-01-26T04:22:54;96439.06;;;0.07;100.00
10014;BME280;45684;48.358;10.746;2023-01-26T04:25:22;96446.78;;;0.08;100.00
10014;BME280;45684;48.358;10.746;2023-01-26T04:27:50;96436.38;;;0.07;100.00
10014;BME280;45684;48.358;10.746;2023-01-26T04:30:18;96440.25;;;-0.01;100.00
10014;BME280;45684;48.358;10.746;2023-01-26T04:32:50;96439.03;;;-0.10;100.00
10014;BME280;45684;48.358;10.746;2023-01-26T04:35:20;96433.91;;;0.00;100.00
10014;BME280;45684;48.358;10.746;2023-01-26T04:37:47;96439.22;;;0.00;100.00
10014;BME280;45684;48.358;10.746;2023-01-26T04:40:16;96435.25;;;0.03;100.00
10014;BME280;45684;48.358;10.746;2023-01-26T04:42:44;96440.03;;;0.01;100.00
10014;BME280;45684;48.358;10.746;2023-01-26T04:45:12;96444.75;;;-0.02;100.00
10014;BME280;45684;48.358;10.746;2023-01-26T04:47:42;96436.72;;;-0.07;100.00
10014;BME280;45684;48.358;10.746;2023-01-26T04:50:11;96432.78;;;-0.04;100.00
10014;BME280;45684;48.358;10.746;2023-01-26T04:52:40;96427.47;;;-0.04;100.00
10014;BME280;45684;48.358;10.746;2023-01-26T04:55:09;96433.00;;;-0.06;100.00
10014;BME280;45684;48.358;10.746;2023-01-26T04:57:39;96438.91;;;-0.04;100.00
10014;BME280;45684;48.358;10.746;2023-01-26T05:00:09;96437.59;;;-0.01;100.00
10014;BME280;45684;48.358;10.746;2023-01-26T05:02:39;96431.00;;;0.02;100.00
10014;BME280;45684;48.358;10.746;2023-01-26T05:05:08;96441.63;;;0.02;100.00
10014;BME280;45684;48.358;10.746;2023-01-26T05:07:36;96443.22;;;0.03;100.00
10014;BME280;45684;48.358;10.746;2023-01-26T05:10:06;96442.19;;;0.04;100.00
10014;BME280;45684;48.358;10.746;2023-01-26T05:12:43;96436.31;;;0.02;100.00
10014;BME280;45684;48.358;10.746;2023-01-26T05:15:29;96435.00;;;0.04;100.00
10014;BME280;45684;48.358;10.746;2023-01-26T05:18:16;96436.66;;;0.05;100.00
10014;BME280;45684;48.358;10.746;2023-01-26T05:20:47;96441.72;;;0.07;100.00
10014;BME280;45684;48.358;10.746;2023-01-26T05:23:17;96435.00;;;0.04;100.00
10014;BME280;45684;48.358;10.746;2023-01-26T05:26:05;96440.56;;;0.03;100.00
10014;BME280;45684;48.358;10.746;2023-01-26T05:28:48;96439.53;;;0.04;100.00
10014;BME280;45684;48.358;10.746;2023-01-26T05:31:16;96437.91;;;0.03;100.00
10014;BME280;45684;48.358;10.746;2023-01-26T05:33:44;96444.84;;;0.04;100.00
10014;BME280;45684;48.358;10.746;2023-01-26T05:36:17;96438.97;;;0.02;100.00
10014;BME280;45684;48.358;10.746;2023-01-26T05:38:45;96443.72;;;-0.01;100.00
10014;BME280;45684;48.358;10.746;2023-01-26T05:41:17;96447.75;;;0.02;100.00
10014;BME280;45684;48.358;10.746;2023-01-26T05:44:04;96451.75;;;0.05;100.00
10014;BME280;45684;48.358;10.746;2023-01-26T05:46:39;96449.34;;;0.03;100.00
10014;BME280;45684;48.358;10.746;2023-01-26T05:49:07;96447.50;;;0.04;100.00
10014;BME280;45684;48.358;10.746;2023-01-26T05:51:35;96452.25;;;0.02;100.00
10014;BME280;45684;48.358;10.746;2023-01-26T05:54:04;96451.13;;;-0.03;100.00
10014;BME280;45684;48.358;10.746;2023-01-26T05:56:34;96451.13;;;-0.03;100.00
10014;BME280;45684;48.358;10.746;2023-01-26T05:59:04;96444.75;;;-0.02;100.00
10014;BME280;45684;48.358;10.746;2023-01-26T06:01:32;96451.94;;;-0.02;100.00
10014;BME280;45684;48.358;10.746;2023-01-26T06:04:04;96458.06;;;-0.02;100.00
10014;BME280;45684;48.358;10.746;2023-01-26T06:06:44;96452.41;;;-0.05;100.00
10014;BME280;45684;48.358;10.746;2023-01-26T06:09:29;96451.13;;;-0.03;100.00
10014;BME280;45684;48.358;10.746;2023-01-26T06:12:13;96453.25;;;-0.05;100.00
10014;BME280;45684;48.358;10.746;2023-01-26T06:14:58;96459.09;;;-0.03;100.00
10014;BME280;45684;48.358;10.746;2023-01-26T06:17:33;96455.97;;;0.01;100.00
10014;BME280;45684;48.358;10.746;2023-01-26T06:20:05;96446.78;;;-0.09;100.00
10014;BME280;45684;48.358;10.746;2023-01-26T06:22:33;96447.91;;;-0.05;100.00
10014;BME280;45684;48.358;10.746;2023-01-26T06:25:01;96453.47;;;-0.06;100.00
10014;BME280;45684;48.358;10.746;2023-01-26T06:27:30;96447.91;;;-0.05;100.00
10014;BME280;45684;48.358;10.746;2023-01-26T06:30:02;96448.94;;;-0.06;100.00
10014;BME280;45684;48.358;10.746;2023-01-26T06:32:32;96450.00;;;-0.07;100.00
10014;BME280;45684;48.358;10.746;2023-01-26T06:35:00;96443.41;;;-0.04;100.00
10014;BME280;45684;48.358;10.746;2023-01-26T06:37:28;96442.09;;;-0.02;100.00
10014;BME280;45684;48.358;10.746;2023-01-26T06:39:56;96445.81;;;-0.03;100.00
10014;BME280;45684;48.358;10.746;2023-01-26T06:42:24;96444.75;;;-0.02;100.00
10014;BME280;45684;48.358;10.746;2023-01-26T06:44:53;96445.50;;;-0.06;100.00
10014;BME280;45684;48.358;10.746;2023-01-26T06:47:23;96442.81;;;-0.06;100.00
10014;BME280;45684;48.358;10.746;2023-01-26T06:49:51;96443.88;;;-0.07;100.00
10014;BME280;45684;48.358;10.746;2023-01-26T06:52:26;96452.75;;;-0.02;100.00
10014;BME280;45684;48.358;10.746;2023-01-26T06:55:02;96440.16;;;-0.06;100.00
10014;BME280;45684;48.358;10.746;2023-01-26T06:57:45;96445.75;;;-0.08;100.00
10014;BME280;45684;48.358;10.746;2023-01-26T07:00:46;96443.34;;;-0.09;100.00
10014;BME280;45684;48.358;10.746;2023-01-26T07:03:23;96458.22;;;-0.08;100.00
10014;BME280;45684;48.358;10.746;2023-01-26T07:05:51;96448.66;;;-0.09;100.00
10014;BME280;45684;48.358;10.746;2023-01-26T07:08:19;96444.13;;;-0.09;100.00
10014;BME280;45684;48.358;10.746;2023-01-26T07:10:48;96439.84;;;-0.10;100.00
10014;BME280;45684;48.358;10.746;2023-01-26T07:13:16;96432.91;;;-0.11;100.00
10014;BME280;45684;48.358;10.746;2023-01-26T07:15:45;96436.16;;;-0.09;100.00
10014;BME280;45684;48.358;10.746;2023-01-26T07:18:13;96439.84;;;-0.10;100.00
10014;BME280;45684;48.358;10.746;2023-01-26T07:20:41;96431.16;;;-0.05;100.00
10014;BME280;45684;48.358;10.746;2023-01-26T07:23:09;96437.28;;;-0.05;100.00
10014;BME280;45684;48.358;10.746;2023-01-26T07:25:37;96440.75;;;-0.04;100.00
10014;BME280;45684;48.358;10.746;2023-01-26T07:28:09;96433.25;;;-0.07;100.00
10014;BME280;45684;48.358;10.746;2023-01-26T07:30:37;96424.94;;;-0.11;100.00
10014;BME280;45684;48.358;10.746;2023-01-26T07:33:06;96427.84;;;-0.12;100.00
10014;BME280;45684;48.358;10.746;2023-01-26T07:35:34;96427.94;;;-0.07;100.00
10014;BME280;45684;48.358;10.746;2023-01-26T07:38:02;96426.88;;;-0.06;100.00
10014;BME280;45684;48.358;10.746;2023-01-26T07:40:30;96425.59;;;-0.04;100.00
10014;BME280;45684;48.358;10.746;2023-01-26T07:42:58;96422.94;;;-0.04;100.00
10014;BME280;45684;48.358;10.746;2023-01-26T07:45:45;96421.91;;;-0.03;100.00
10014;BME280;45684;48.358;10.746;2023-01-26T07:48:14;96432.06;;;0.01;100.00
10014;BME280;45684;48.358;10.746;2023-01-26T07:50:42;96434.22;;;0.04;100.00
10014;BME280;45684;48.358;10.746;2023-01-26T07:53:10;96426.41;;;-0.03;100.00
10014;BME280;45684;48.358;10.746;2023-01-26T07:55:41;96431.25;;;0.00;100.00
10014;BME280;45684;48.358;10.746;2023-01-26T07:58:10;96430.41;;;-0.01;100.00
10014;BME280;45684;48.358;10.746;2023-01-26T08:00:38;96424.31;;;-0.01;100.00
10014;BME280;45684;48.358;10.746;2023-01-26T08:03:06;96422.44;;;-0.01;100.00
10014;BME280;45684;48.358;10.746;2023-01-26T08:05:35;96428.59;;;0.00;100.00
10014;BME280;45684;48.358;10.746;2023-01-26T08:08:04;96425.69;;;0.02;100.00
10014;BME280;45684;48.358;10.746;2023-01-26T08:10:32;96431.25;;;0.00;100.00
10014;BME280;45684;48.358;10.746;2023-01-26T08:13:00;96420.38;;;0.02;100.00
10014;BME280;45684;48.358;10.746;2023-01-26T08:15:29;96423.56;;;0.04;100.00
10014;BME280;45684;48.358;10.746;2023-01-26T08:17:56;96412.13;;;0.03;100.00
10014;BME280;45684;48.358;10.746;2023-01-26T08:20:26;96416.66;;;0.03;100.00
10014;BME280;45684;48.358;10.746;2023-01-26T08:22:55;96414.00;;;0.03;100.00
10014;BME280;45684;48.358;10.746;2023-01-26T08:25:26;96412.41;;;0.02;100.00
10014;BME280;45684;48.358;10.746;2023-01-26T08:27:53;96407.41;;;0.05;100.00
10014;BME280;45684;48.358;10.746;2023-01-26T08:30:21;96412.13;;;0.03;100.00
10014;BME280;45684;48.358;10.746;2023-01-26T08:32:49;96404.75;;;0.05;100.00
10014;BME280;45684;48.358;10.746;2023-01-26T08:35:17;96403.69;;;0.06;100.00
10014;BME280;45684;48.358;10.746;2023-01-26T08:37:45;96404.97;;;0.04;100.00
10014;BME280;45684;48.358;10.746;2023-01-26T08:40:15;96410.28;;;0.04;100.00
10014;BME280;45684;48.358;10.746;2023-01-26T08:42:43;96406.34;;;0.06;100.00
10014;BME280;45684;48.358;10.746;2023-01-26T08:45:10;96407.16;;;0.07;100.00
10014;BME280;45684;48.358;10.746;2023-01-26T08:47:38;96413.81;;;0.09;100.00
10014;BME280;45684;48.358;10.746;2023-01-26T08:50:07;96414.66;;;0.10;100.00
10014;BME280;45684;48.358;10.746;2023-01-26T08:52:36;96412.78;;;0.10;100.00
10014;BME280;45684;48.358;10.746;2023-01-26T08:55:04;96410.94;;;0.11;100.00
10014;BME280;45684;48.358;10.746;2023-01-26T08:57:34;96409.34;;;0.10;100.00
10014;BME280;45684;48.358;10.746;2023-01-26T09:00:02;96410.19;;;0.15;100.00
10014;BME280;45684;48.358;10.746;2023-01-26T09:02:30;96403.03;;;0.16;100.00
10014;BME280;45684;48.358;10.746;2023-01-26T09:04:58;96405.44;;;0.17;100.00
10014;BME280;45684;48.358;10.746;2023-01-26T09:07:26;96403.03;;;0.16;100.00
10014;BME280;45684;48.358;10.746;2023-01-26T09:09:54;96399.78;;;0.14;100.00
10014;BME280;45684;48.358;10.746;2023-01-26T09:12:22;96407.78;;;0.14;100.00
10014;BME280;45684;48.358;10.746;2023-01-26T09:14:51;96405.84;;;0.09;100.00
10014;BME280;45684;48.358;10.746;2023-01-26T09:17:19;96410.13;;;0.10;100.00
10014;BME280;45684;48.358;10.746;2023-01-26T09:19:46;96408.81;;;0.13;100.00
10014;BME280;45684;48.358;10.746;2023-01-26T09:22:14;96408.81;;;0.13;100.00
10014;BME280;45684;48.358;10.746;2023-01-26T09:24:42;96409.63;;;0.13;100.00
10014;BME280;45684;48.358;10.746;2023-01-26T09:27:10;96424.03;;;0.17;100.00
10014;BME280;45684;48.358;10.746;2023-01-26T09:29:38;96421.16;;;0.19;100.00
10014;BME280;45684;48.358;10.746;2023-01-26T09:32:07;96424.91;;;0.23;100.00
10014;BME280;45684;48.358;10.746;2023-01-26T09:34:35;96426.63;;;0.29;100.00
10014;BME280;45684;48.358;10.746;2023-01-26T09:37:05;96416.78;;;0.30;100.00
10014;BME280;45684;48.358;10.746;2023-01-26T09:39:33;96415.72;;;0.31;100.00
10014;BME280;45684;48.358;10.746;2023-01-26T09:42:16;96417.34;;;0.32;100.00
10014;BME280;45684;48.358;10.746;2023-01-26T09:44:51;96424.03;;;0.34;100.00
10014;BME280;45684;48.358;10.746;2023-01-26T09:47:28;96410.72;;;0.34;100.00
10014;BME280;45684;48.358;10.746;2023-01-26T09:50:01;96414.19;;;0.35;100.00
10014;BME280;45684;48.358;10.746;2023-01-26T09:52:43;96410.72;;;0.34;100.00
10014;BME280;45684;48.358;10.746;2023-01-26T09:55:18;96408.88;;;0.35;100.00
10014;BME280;45684;48.358;10.746;2023-01-26T09:57:49;96406.53;;;0.38;100.00
10014;BME280;45684;48.358;10.746;2023-01-26T10:00:21;96404.44;;;0.40;100.00
10014;BME280;45684;48.358;10.746;2023-01-26T10:03:00;96417.25;;;0.43;100.00
10014;BME280;45684;48.358;10.746;2023-01-26T10:05:37;96412.47;;;0.45;100.00
10014;BME280;45684;48.358;10.746;2023-01-26T10:08:19;96407.72;;;0.47;100.00
10014;BME280;45684;48.358;10.746;2023-01-26T10:10:52;96405.06;;;0.47;100.00
10014;BME280;45684;48.358;10.746;2023-01-26T10:13:22;96410.94;;;0.49;100.00
10014;BME280;45684;48.358;10.746;2023-01-26T10:15:53;96414.66;;;0.48;100.00
10014;BME280;45684;48.358;10.746;2023-01-26T10:18:28;96415.13;;;0.45;100.00
10014;BME280;45684;48.358;10.746;2023-01-26T10:20:59;96417.72;;;0.40;100.00
10014;BME280;45684;48.358;10.746;2023-01-26T10:23:31;96404.78;;;0.27;100.00
10014;BME280;45684;48.358;10.746;2023-01-26T10:26:10;96402.63;;;0.24;100.00
10014;BME280;45684;48.358;10.746;2023-01-26T10:29:04;96398.91;;;0.25;100.00
10014;BME280;45684;48.358;10.746;2023-01-26T10:31:39;96399.78;;;0.31;100.00
10014;BME280;45684;48.358;10.746;2023-01-26T10:34:12;96402.50;;;0.36;100.00
10014;BME280;45684;48.358;10.746;2023-01-26T10:36:43;96406.22;;;0.35;100.00
10014;BME280;45684;48.358;10.746;2023-01-26T10:39:13;96403.56;;;0.35;100.00
10014;BME280;45684;48.358;10.746;2023-01-26T10:41:55;96402.25;;;0.37;100.00
10014;BME280;45684;48.358;10.746;2023-01-26T10:44:30;96391.06;;;0.35;100.00
10014;BME280;45684;48.358;10.746;2023-01-26T10:47:05;96392.66;;;0.36;100.00
10014;BME280;45684;48.358;10.746;2023-01-26T10:49:35;96385.75;;;0.35;100.00
10014;BME280;45684;48.358;10.746;2023-01-26T10:52:05;96380.09;;;0.32;100.00
10014;BME280;45684;48.358;10.746;2023-01-26T10:54:33;96383.56;;;0.32;100.00
10014;BME280;45684;48.358;10.746;2023-01-26T10:57:03;96385.25;;;0.38;100.00
10014;BME280;45684;48.358;10.746;2023-01-26T10:59:34;96389.03;;;0.42;100.00
10014;BME280;45684;48.358;10.746;2023-01-26T11:02:20;96395.97;;;0.43;100.00
10014;BME280;45684;48.358;10.746;2023-01-26T11:05:13;96385.50;;;0.37;100.00
10014;BME280;45684;48.358;10.746;2023-01-26T11:07:43;96387.16;;;0.21;100.00
10014;BME280;45684;48.358;10.746;2023-01-26T11:10:21;96390.00;;;0.36;100.00
10014;BME280;45684;48.358;10.746;2023-01-26T11:12:51;96385.31;;;0.43;100.00
10014;BME280;45684;48.358;10.746;2023-01-26T11:15:36;96389.91;;;0.48;100.00
10014;BME280;45684;48.358;10.746;2023-01-26T11:18:15;96387.06;;;0.55;100.00
10014;BME280;45684;48.358;10.746;2023-01-26T11:20:50;96391.19;;;0.45;100.00
10014;BME280;45684;48.358;10.746;2023-01-26T11:23:30;96392.31;;;0.49;100.00
10014;BME280;45684;48.358;10.746;2023-01-26T11:29:22;96393.97;;;0.56;100.00
10014;BME280;45684;48.358;10.746;2023-01-26T11:31:59;96396.72;;;0.61;100.00
10014;BME280;45684;48.358;10.746;2023-01-26T11:34:39;96398.06;;;0.63;100.00
10014;BME280;45684;48.358;10.746;2023-01-26T11:37:38;96378.66;;;0.63;100.00
10014;BME280;45684;48.358;10.746;2023-01-26T11:40:28;96377.06;;;0.62;100.00
10014;BME280;45684;48.358;10.746;2023-01-26T11:43:08;96383.50;;;0.66;100.00
10014;BME280;45684;48.358;10.746;2023-01-26T11:45:58;96378.66;;;0.63;100.00
10014;BME280;45684;48.358;10.746;2023-01-26T11:48:32;96371.47;;;0.63;100.00
10014;BME280;45684;48.358;10.746;2023-01-26T11:51:17;96373.44;;;0.73;100.00
10014;BME280;45684;48.358;10.746;2023-01-26T11:54:11;96379.25;;;0.70;100.00
10014;BME280;45684;48.358;10.746;2023-01-26T11:56:47;96367.63;;;0.76;100.00
10014;BME280;45684;48.358;10.746;2023-01-26T11:59:18;96361.50;;;0.75;100.00
10014;BME280;45684;48.358;10.746;2023-01-26T12:01:52;96370.84;;;0.78;100.00
10014;BME280;45684;48.358;10.746;2023-01-26T12:04:23;96366.63;;;0.82;100.00
10014;BME280;45684;48.358;10.746;2023-01-26T12:06:54;96361.00;;;0.79;100.00
10014;BME280;45684;48.358;10.746;2023-01-26T12:09:31;96365.47;;;0.73;100.00
10014;BME280;45684;48.358;10.746;2023-01-26T12:12:05;96358.78;;;0.70;100.00
10014;BME280;45684;48.358;10.746;2023-01-26T12:14:39;96361.19;;;0.72;100.00
10014;BME280;45684;48.358;10.746;2023-01-26T12:17:19;96349.44;;;0.68;100.00
10014;BME280;45684;48.358;10.746;2023-01-26T12:19:53;96353.28;;;0.55;100.00
10014;BME280;45684;48.358;10.746;2023-01-26T12:22:32;96350.63;;;0.33;100.00
10014;BME280;45684;48.358;10.746;2023-01-26T12:25:16;96356.22;;;0.37;100.00
10014;BME280;45684;48.358;10.746;2023-01-26T12:27:50;96353.75;;;0.30;100.00
10014;BME280;45684;48.358;10.746;2023-01-26T12:30:29;96353.75;;;0.30;100.00
10014;BME280;45684;48.358;10.746;2023-01-26T12:32:59;96345.25;;;0.28;100.00
10014;BME280;45684;48.358;10.746;2023-01-26T12:35:37;96339.41;;;0.31;100.00
10014;BME280;45684;48.358;10.746;2023-01-26T12:38:13;96335.69;;;0.32;100.00
10014;BME280;45684;48.358;10.746;2023-01-26T12:40:55;96328.28;;;0.34;100.00
10014;BME280;45684;48.358;10.746;2023-01-26T12:43:43;96327.03;;;0.20;100.00
10014;BME280;45684;48.358;10.746;2023-01-26T12:46:15;96320.03;;;0.14;100.00
10014;BME280;45684;48.358;10.746;2023-01-26T12:48:46;96324.38;;;0.20;100.00
10014;BME280;45684;48.358;10.746;2023-01-26T12:51:19;96323.88;;;0.23;100.00
10014;BME280;45684;48.358;10.746;2023-01-26T12:53:54;96317.66;;;0.34;100.00
10014;BME280;45684;48.358;10.746;2023-01-26T12:56:29;96318.06;;;0.26;100.00
10014;BME280;45684;48.358;10.746;2023-01-26T12:59:12;96322.06;;;0.23;100.00
10014;BME280;45684;48.358;10.746;2023-01-26T13:02:09;96321.84;;;0.30;100.00
10014;BME280;45684;48.358;10.746;2023-01-26T13:04:39;96324.03;;;0.33;100.00
10014;BME280;45684;48.358;10.746;2023-01-26T13:07:26;96319.25;;;0.35;100.00
10014;BME280;45684;48.358;10.746;2023-01-26T13:13:00;96317.03;;;0.27;100.00
10014;BME280;45684;48.358;10.746;2023-01-26T13:15:30;96313.34;;;0.28;100.00
10014;BME280;45684;48.358;10.746;2023-01-26T13:18:00;96315.25;;;0.33;100.00
10014;BME280;45684;48.358;10.746;2023-01-26T13:20:49;96305.97;;;0.35;100.00
10014;BME280;45684;48.358;10.746;2023-01-26T13:23:40;96311.81;;;0.37;100.00
10014;BME280;45684;48.358;10.746;2023-01-26T13:26:14;96311.81;;;0.37;100.00